createdAt,value
2022-11-18T00:00:44.426Z,8.40
2022-11-18T00:03:11.125Z,8.30
2022-11-18T00:05:37.898Z,8.30
2022-11-18T00:08:04.676Z,8.30
2022-11-18T00:10:31.415Z,8.30
2022-11-18T00:13:16.695Z,8.20
2022-11-18T00:15:43.313Z,8.30
2022-11-18T00:18:09.983Z,8.20
2022-11-18T00:20:36.652Z,8.20
2022-11-18T00:23:03.330Z,8.20
2022-11-18T00:25:29.942Z,8.20
2022-11-18T00:27:56.619Z,8.20
2022-11-18T00:30:23.308Z,8.20
2022-11-18T00:32:49.927Z,8.10
2022-11-18T00:35:16.598Z,8.10
2022-11-18T00:37:43.266Z,8.10
2022-11-18T00:40:10.191Z,8.10
2022-11-18T00:42:52.059Z,8.00
2022-11-18T00:45:19.137Z,8.00
2022-11-18T00:47:45.776Z,8.00
2022-11-18T00:50:12.547Z,8.00
2022-11-18T00:52:39.168Z,8.00
2022-11-18T00:55:05.883Z,8.00
2022-11-18T00:57:32.480Z,7.90
2022-11-18T00:59:59.113Z,7.90
2022-11-18T01:02:25.732Z,7.90
2022-11-18T01:04:52.364Z,7.90
2022-11-18T01:07:19.082Z,7.90
2022-11-18T01:09:45.771Z,7.90
2022-11-18T01:12:31.094Z,7.90
2022-11-18T01:14:58.899Z,7.90
2022-11-18T01:17:25.551Z,7.90
2022-11-18T01:19:52.249Z,7.90
2022-11-18T01:22:18.891Z,7.90
2022-11-18T01:24:45.580Z,7.90
2022-11-18T01:27:12.272Z,7.90
2022-11-18T01:29:38.965Z,7.90
2022-11-18T01:34:52.313Z,7.90
2022-11-18T01:37:19.117Z,7.80
2022-11-18T01:39:45.804Z,7.80
2022-11-18T01:42:14.288Z,7.80
2022-11-18T01:45:16.770Z,7.80
2022-11-18T01:47:58.071Z,7.80
2022-11-18T01:50:25.527Z,7.80
2022-11-18T01:52:53.491Z,7.80
2022-11-18T01:55:24.494Z,7.80
2022-11-18T01:57:51.811Z,7.80
2022-11-18T02:00:18.563Z,7.80
2022-11-18T02:02:45.588Z,7.80
2022-11-18T02:05:12.367Z,7.80
2022-11-18T02:07:40.646Z,7.80
2022-11-18T02:10:07.755Z,7.70
2022-11-18T02:12:35.240Z,7.80
2022-11-18T02:15:02.495Z,7.80
2022-11-18T02:17:32.086Z,7.80
2022-11-18T02:20:11.042Z,7.80
2022-11-18T02:23:07.031Z,7.80
2022-11-18T02:25:52.334Z,7.80
2022-11-18T02:28:34.436Z,7.80
2022-11-18T02:31:04.059Z,7.80
2022-11-18T02:33:30.668Z,7.80
2022-11-18T02:36:02.056Z,7.80
2022-11-18T02:38:34.559Z,7.80
2022-11-18T02:41:06.683Z,7.80
2022-11-18T02:43:40.799Z,7.80
2022-11-18T02:46:09.736Z,7.80
2022-11-18T02:48:39.344Z,7.80
2022-11-18T02:51:07.659Z,7.80
2022-11-18T02:53:35.136Z,7.80
2022-11-18T02:56:02.565Z,7.80
2022-11-18T02:58:29.283Z,7.80
2022-11-18T03:01:00.044Z,7.80
2022-11-18T03:03:27.081Z,7.80
2022-11-18T03:06:13.982Z,7.80
2022-11-18T03:08:52.351Z,7.80
2022-11-18T03:11:23.937Z,7.80
2022-11-18T03:14:02.745Z,7.90
2022-11-18T03:16:36.416Z,7.80
2022-11-18T03:19:09.775Z,7.80
2022-11-18T03:21:41.220Z,7.80
2022-11-18T03:24:13.382Z,7.80
2022-11-18T03:26:42.511Z,7.80
2022-11-18T03:29:21.636Z,7.80
2022-11-18T03:31:54.474Z,7.80
2022-11-18T03:34:30.277Z,7.90
2022-11-18T03:37:00.861Z,7.80
2022-11-18T03:39:29.355Z,7.80
2022-11-18T03:42:00.996Z,7.80
2022-11-18T03:44:30.065Z,7.80
2022-11-18T03:47:06.860Z,7.80
2022-11-18T03:49:36.676Z,7.80
2022-11-18T03:52:07.744Z,7.80
2022-11-18T03:54:35.218Z,7.80
2022-11-18T03:57:05.887Z,7.80
2022-11-18T03:59:37.194Z,7.80
2022-11-18T04:02:11.195Z,7.80
2022-11-18T04:04:38.152Z,7.80
2022-11-18T04:07:07.860Z,7.80
2022-11-18T04:09:37.600Z,7.70
2022-11-18T04:12:07.743Z,7.70
2022-11-18T04:14:35.634Z,7.70
2022-11-18T04:17:05.988Z,7.70
2022-11-18T04:19:32.687Z,7.70
2022-11-18T04:21:59.298Z,7.70
2022-11-18T04:24:25.959Z,7.70
2022-11-18T04:26:52.643Z,7.70
2022-11-18T04:29:19.453Z,7.70
2022-11-18T04:31:46.296Z,7.70
2022-11-18T04:34:12.872Z,7.70
2022-11-18T04:36:39.550Z,7.70
2022-11-18T04:39:06.243Z,7.70
2022-11-18T04:41:51.567Z,7.70
2022-11-18T04:44:18.235Z,7.70
2022-11-18T04:46:45.215Z,7.70
2022-11-18T04:49:13.457Z,7.70
2022-11-18T04:51:40.971Z,7.70
2022-11-18T04:54:07.689Z,7.70
2022-11-18T04:56:34.532Z,7.70
2022-11-18T04:59:02.052Z,7.70
2022-11-18T05:01:29.250Z,7.70
2022-11-18T05:03:56.052Z,7.70
2022-11-18T05:06:22.893Z,7.70
2022-11-18T05:08:49.676Z,7.70
2022-11-18T05:11:35.192Z,7.70
2022-11-18T05:14:01.835Z,7.60
2022-11-18T05:16:28.596Z,7.60
2022-11-18T05:18:55.295Z,7.60
2022-11-18T05:21:21.921Z,7.60
2022-11-18T05:23:48.575Z,7.60
2022-11-18T05:26:15.229Z,7.60
2022-11-18T05:28:41.871Z,7.60
2022-11-18T05:31:09.230Z,7.60
2022-11-18T05:33:36.294Z,7.60
2022-11-18T05:36:13.398Z,7.50
2022-11-18T05:38:40.084Z,7.50
2022-11-18T05:41:07.233Z,7.50
2022-11-18T05:43:35.146Z,7.50
2022-11-18T05:46:02.161Z,7.50
2022-11-18T05:48:28.982Z,7.50
2022-11-18T05:50:56.048Z,7.40
2022-11-18T05:53:24.352Z,7.40
2022-11-18T05:55:54.636Z,7.40
2022-11-18T05:58:21.279Z,7.40
2022-11-18T06:00:50.827Z,7.30
2022-11-18T06:03:19.426Z,7.30
2022-11-18T06:05:46.736Z,7.20
2022-11-18T06:08:15.920Z,7.20
2022-11-18T06:10:43.121Z,7.20
2022-11-18T06:13:11.368Z,7.20
2022-11-18T06:15:40.717Z,7.20
2022-11-18T06:18:11.269Z,7.20
2022-11-18T06:20:39.282Z,7.10
2022-11-18T06:23:05.920Z,7.10
2022-11-18T06:25:32.958Z,7.10
2022-11-18T06:28:01.343Z,7.10
2022-11-18T06:30:28.030Z,7.10
2022-11-18T06:32:54.691Z,7.20
2022-11-18T06:35:21.360Z,7.20
2022-11-18T06:37:48.078Z,7.30
2022-11-18T06:40:14.690Z,7.30
2022-11-18T06:43:00.324Z,7.30
2022-11-18T06:45:27.081Z,7.30
2022-11-18T06:47:57.581Z,7.40
2022-11-18T06:50:24.604Z,7.40
2022-11-18T06:52:51.325Z,7.40
2022-11-18T06:55:17.987Z,7.40
2022-11-18T06:57:44.691Z,7.40
2022-11-18T07:00:11.628Z,7.40
2022-11-18T07:02:38.469Z,7.40
2022-11-18T07:05:06.298Z,7.40
2022-11-18T07:07:38.962Z,7.40
2022-11-18T07:10:08.763Z,7.40
2022-11-18T07:12:35.397Z,7.50
2022-11-18T07:15:02.022Z,7.50
2022-11-18T07:17:30.021Z,7.50
2022-11-18T07:19:56.679Z,7.50
2022-11-18T07:22:23.387Z,7.60
2022-11-18T07:24:50.042Z,7.60
2022-11-18T07:27:16.680Z,7.60
2022-11-18T07:29:43.300Z,7.70
2022-11-18T07:32:09.979Z,7.70
2022-11-18T07:34:36.641Z,7.70
2022-11-18T07:37:03.483Z,7.80
2022-11-18T07:39:30.110Z,7.90
2022-11-18T07:41:56.775Z,7.90
2022-11-18T07:44:23.395Z,7.90
2022-11-18T07:46:50.081Z,8.00
2022-11-18T07:49:17.045Z,8.00
2022-11-18T07:51:43.910Z,8.00
2022-11-18T07:54:11.773Z,8.10
2022-11-18T07:56:38.480Z,8.10
2022-11-18T07:59:05.430Z,8.10
2022-11-18T08:01:32.425Z,8.10
2022-11-18T08:04:05.024Z,8.10
2022-11-18T08:06:32.773Z,8.20
2022-11-18T08:08:59.435Z,8.20
2022-11-18T08:11:26.083Z,8.10
2022-11-18T08:13:52.880Z,8.20
2022-11-18T08:16:21.171Z,8.20
2022-11-18T08:18:48.183Z,8.20
2022-11-18T08:21:15.239Z,8.20
2022-11-18T08:23:42.840Z,8.30
2022-11-18T08:26:14.114Z,8.40
2022-11-18T08:28:41.293Z,8.40
2022-11-18T08:31:15.872Z,8.40
2022-11-18T08:33:42.548Z,8.40
2022-11-18T08:36:20.807Z,8.40
2022-11-18T08:38:47.511Z,8.40
2022-11-18T08:41:15.756Z,8.30
2022-11-18T08:43:42.430Z,8.30
2022-11-18T08:46:09.106Z,8.30
2022-11-18T08:48:35.924Z,8.30
2022-11-18T08:51:02.712Z,8.30
2022-11-18T08:53:29.390Z,8.30
2022-11-18T08:55:59.396Z,8.30
2022-11-18T08:58:26.808Z,8.30
2022-11-18T09:00:53.859Z,8.30
2022-11-18T09:03:20.609Z,8.20
2022-11-18T09:05:47.568Z,8.20
2022-11-18T09:08:15.620Z,8.20
2022-11-18T09:10:42.390Z,8.10
2022-11-18T09:13:38.673Z,8.10
2022-11-18T09:15:58.127Z,8.10
2022-11-18T09:18:24.764Z,8.10
2022-11-18T09:20:58.447Z,8.10
2022-11-18T09:23:25.124Z,8.10
2022-11-18T09:25:58.714Z,8.10
2022-11-18T09:28:25.539Z,8.10
2022-11-18T09:30:52.391Z,8.20
2022-11-18T09:33:20.742Z,8.20
2022-11-18T09:35:47.903Z,8.10
2022-11-18T09:38:14.618Z,8.10
2022-11-18T09:41:10.711Z,8.20
2022-11-18T09:43:47.401Z,8.20
2022-11-18T09:46:29.375Z,8.20
2022-11-18T09:49:14.284Z,8.20
2022-11-18T09:51:46.471Z,8.20
2022-11-18T09:54:23.715Z,8.30
2022-11-18T09:56:51.617Z,8.30
2022-11-18T09:59:20.308Z,8.30
2022-11-18T10:01:47.697Z,8.30
2022-11-18T10:04:16.103Z,8.30
2022-11-18T10:06:44.519Z,8.30
2022-11-18T10:09:27.149Z,8.20
2022-11-18T10:11:59.896Z,8.20
2022-11-18T10:14:38.799Z,8.10
2022-11-18T10:17:37.975Z,8.00
2022-11-18T10:20:04.674Z,8.00
2022-11-18T10:22:31.294Z,8.00
2022-11-18T10:24:58.743Z,7.90
2022-11-18T10:27:27.346Z,8.00
2022-11-18T10:29:55.375Z,8.00
2022-11-18T10:32:22.048Z,8.10
2022-11-18T10:34:48.964Z,8.10
2022-11-18T10:38:06.417Z,8.10
2022-11-18T10:40:27.315Z,8.10
2022-11-18T10:42:54.039Z,8.10
2022-11-18T10:45:23.688Z,8.10
2022-11-18T10:47:57.673Z,8.00
2022-11-18T10:50:28.958Z,8.00
2022-11-18T10:52:55.731Z,7.90
2022-11-18T10:55:23.799Z,7.90
2022-11-18T10:57:52.161Z,7.80
2022-11-18T11:00:34.121Z,7.80
2022-11-18T11:03:01.151Z,7.80
2022-11-18T11:05:28.127Z,7.80
2022-11-18T11:08:34.657Z,7.70
2022-11-18T11:10:56.131Z,7.70
2022-11-18T11:13:23.863Z,7.60
2022-11-18T11:15:51.544Z,7.60
2022-11-18T11:18:41.396Z,7.60
2022-11-18T11:21:15.091Z,7.60
2022-11-18T11:23:42.538Z,7.70
2022-11-18T11:29:33.009Z,7.90
2022-11-18T11:31:59.618Z,7.90
2022-11-18T11:34:32.764Z,8.00
2022-11-18T11:37:12.204Z,8.10
2022-11-18T11:39:38.880Z,8.10
2022-11-18T11:42:20.823Z,8.20
2022-11-18T11:45:02.818Z,8.20
2022-11-18T11:47:46.844Z,8.20
2022-11-18T11:50:16.435Z,8.10
2022-11-18T11:53:00.652Z,8.10
2022-11-18T11:55:39.634Z,8.10
2022-11-18T11:58:21.486Z,8.00
2022-11-18T12:00:58.023Z,8.00
2022-11-18T12:03:47.322Z,8.00
2022-11-18T12:06:18.266Z,8.00
2022-11-18T12:08:50.322Z,8.00
2022-11-18T12:11:25.101Z,8.00
2022-11-18T12:13:54.778Z,8.00
2022-11-18T12:16:27.196Z,8.00
2022-11-18T12:19:02.671Z,7.90
2022-11-18T12:21:45.379Z,7.90
2022-11-18T12:24:17.999Z,7.90
2022-11-18T12:26:45.459Z,7.90
2022-11-18T12:29:18.439Z,7.90
2022-11-18T12:32:04.181Z,7.90
2022-11-18T12:34:37.237Z,7.80
2022-11-18T12:37:22.590Z,7.80
2022-11-18T12:39:58.153Z,7.70
2022-11-18T12:42:52.638Z,7.80
2022-11-18T12:45:46.949Z,7.70
2022-11-18T12:48:28.709Z,7.80
2022-11-18T12:50:59.409Z,7.70
2022-11-18T12:53:44.916Z,7.80
2022-11-18T12:56:17.577Z,7.80
2022-11-18T12:58:45.393Z,7.70
2022-11-18T13:01:13.793Z,7.60
2022-11-18T13:03:40.482Z,7.60
2022-11-18T13:06:12.829Z,7.60
2022-11-18T13:08:40.163Z,7.60
2022-11-18T13:11:33.430Z,7.50
2022-11-18T13:14:19.374Z,7.50
2022-11-18T13:17:04.472Z,7.40
2022-11-18T13:19:31.134Z,7.40
2022-11-18T13:22:17.306Z,7.40
2022-11-18T13:24:45.373Z,7.30
2022-11-18T13:27:20.266Z,7.40
2022-11-18T13:29:52.617Z,7.30
2022-11-18T13:32:22.413Z,7.40
2022-11-18T13:34:53.386Z,7.30
2022-11-18T13:37:22.195Z,7.30
2022-11-18T13:39:49.261Z,7.40
2022-11-18T13:42:18.802Z,7.40
2022-11-18T13:44:55.849Z,7.40
2022-11-18T13:47:25.547Z,7.40
2022-11-18T13:50:02.809Z,7.40
2022-11-18T13:52:39.529Z,7.40
2022-11-18T13:55:15.141Z,7.40
2022-11-18T13:57:45.670Z,7.40
2022-11-18T14:00:20.836Z,7.40
2022-11-18T14:02:49.771Z,7.40
2022-11-18T14:05:21.752Z,7.50
2022-11-18T14:08:00.700Z,7.50
2022-11-18T14:10:40.227Z,7.50
2022-11-18T14:13:17.753Z,7.60
2022-11-18T14:15:44.634Z,7.60
2022-11-18T14:18:17.616Z,7.60
2022-11-18T14:20:49.633Z,7.60
2022-11-18T14:23:17.169Z,7.60
2022-11-18T14:25:44.499Z,7.60
2022-11-18T14:28:12.750Z,7.60
2022-11-18T14:30:41.518Z,7.60
2022-11-18T14:33:20.570Z,7.60
2022-11-18T14:35:51.533Z,7.60
2022-11-18T14:38:43.733Z,7.50
2022-11-18T14:41:08.701Z,7.50
2022-11-18T14:43:35.451Z,7.50
2022-11-18T14:46:03.365Z,7.40
2022-11-18T14:48:32.643Z,7.40
2022-11-18T14:50:59.719Z,7.40
2022-11-18T14:53:26.428Z,7.40
2022-11-18T14:55:53.832Z,7.30
2022-11-18T14:58:20.464Z,7.30
2022-11-18T15:00:47.931Z,7.30
2022-11-18T15:03:14.875Z,7.30
2022-11-18T15:05:41.606Z,7.30
2022-11-18T15:08:08.502Z,7.20
2022-11-18T15:10:35.555Z,7.10
2022-11-18T15:13:02.184Z,7.10
2022-11-18T15:15:28.957Z,7.00
2022-11-18T15:17:55.577Z,7.00
2022-11-18T15:20:22.870Z,6.90
2022-11-18T15:22:49.562Z,6.90
2022-11-18T15:25:16.459Z,6.90
2022-11-18T15:27:43.098Z,6.80
2022-11-18T15:30:11.485Z,6.80
2022-11-18T15:32:38.102Z,6.80
2022-11-18T15:35:04.824Z,6.70
2022-11-18T15:37:31.453Z,6.70
2022-11-18T15:39:58.152Z,6.70
2022-11-18T15:42:24.763Z,6.70
2022-11-18T15:44:51.405Z,6.70
2022-11-18T15:47:18.346Z,6.70
2022-11-18T15:49:45.481Z,6.70
2022-11-18T15:52:12.583Z,6.70
2022-11-18T15:54:39.406Z,6.70
2022-11-18T15:57:06.123Z,6.70
2022-11-18T15:59:32.760Z,6.80
2022-11-18T16:01:59.373Z,6.80
2022-11-18T16:04:26.162Z,6.90
2022-11-18T16:06:53.580Z,6.90
2022-11-18T16:09:20.598Z,6.80
2022-11-18T16:12:06.051Z,6.80
2022-11-18T16:14:35.685Z,6.80
2022-11-18T16:17:02.302Z,6.80
2022-11-18T16:19:33.282Z,6.80
2022-11-18T16:21:59.993Z,6.80
2022-11-18T16:24:27.827Z,6.80
2022-11-18T16:26:54.601Z,6.80
2022-11-18T16:29:21.483Z,6.90
2022-11-18T16:31:52.886Z,6.90
2022-11-18T16:34:19.760Z,6.90
2022-11-18T16:36:47.547Z,7.00
2022-11-18T16:39:18.604Z,7.10
2022-11-18T16:41:46.108Z,7.10
2022-11-18T16:44:16.717Z,7.10
2022-11-18T16:46:46.450Z,7.10
2022-11-18T16:49:13.913Z,7.10
2022-11-18T16:51:42.609Z,7.10
2022-11-18T16:54:16.134Z,7.10
2022-11-18T16:56:42.780Z,7.10
2022-11-18T16:59:21.708Z,7.10
2022-11-18T17:01:48.747Z,7.00
2022-11-18T17:04:15.394Z,7.00
2022-11-18T17:06:42.765Z,7.00
2022-11-18T17:09:13.595Z,7.00
2022-11-18T17:11:40.306Z,7.00
2022-11-18T17:14:07.030Z,7.00
2022-11-18T17:16:33.706Z,7.00
2022-11-18T17:19:00.873Z,6.90
2022-11-18T17:21:28.128Z,6.90
2022-11-18T17:23:55.182Z,6.90
2022-11-18T17:26:22.983Z,6.90
2022-11-18T17:28:49.954Z,6.90
2022-11-18T17:31:17.646Z,6.90
2022-11-18T17:33:44.675Z,6.90
2022-11-18T17:36:15.479Z,7.00
2022-11-18T17:38:43.717Z,7.10
2022-11-18T17:41:31.181Z,7.10
2022-11-18T17:43:58.183Z,7.10
2022-11-18T17:46:24.813Z,7.20
2022-11-18T17:48:58.130Z,7.20
2022-11-18T17:51:25.335Z,7.20
2022-11-18T17:53:52.241Z,7.20
2022-11-18T17:56:19.223Z,7.20
2022-11-18T17:58:45.880Z,7.20
2022-11-18T18:01:14.392Z,7.20
2022-11-18T18:03:41.219Z,7.10
2022-11-18T18:06:08.905Z,7.10
2022-11-18T18:08:35.950Z,7.10
2022-11-18T18:11:03.520Z,7.10
2022-11-18T18:13:48.891Z,7.10
2022-11-18T18:16:15.767Z,7.10
2022-11-18T18:18:42.479Z,7.00
2022-11-18T18:21:12.833Z,6.90
2022-11-18T18:23:39.811Z,6.80
2022-11-18T18:26:07.282Z,6.80
2022-11-18T18:28:34.045Z,6.70
2022-11-18T18:31:08.379Z,6.60
2022-11-18T18:33:36.298Z,6.60
2022-11-18T18:36:04.106Z,6.40
2022-11-18T18:38:34.962Z,6.30
2022-11-18T18:41:02.393Z,6.20
2022-11-18T18:43:29.166Z,6.20
2022-11-18T18:46:24.600Z,6.00
2022-11-18T18:48:51.598Z,6.00
2022-11-18T18:51:18.221Z,5.90
2022-11-18T18:53:45.357Z,5.90
2022-11-18T18:56:13.533Z,6.00
2022-11-18T18:58:40.190Z,5.90
2022-11-18T19:01:06.963Z,6.00
2022-11-18T19:03:33.622Z,6.00
2022-11-18T19:08:47.947Z,6.10
2022-11-18T19:11:34.268Z,6.10
2022-11-18T19:14:01.954Z,6.10
2022-11-18T19:16:28.628Z,6.10
2022-11-18T19:18:55.986Z,6.10
2022-11-18T19:21:22.643Z,6.10
2022-11-18T19:23:49.358Z,6.10
2022-11-18T19:26:15.989Z,6.10
2022-11-18T19:28:42.664Z,6.10
2022-11-18T19:31:09.734Z,6.10
2022-11-18T19:33:37.056Z,6.10
2022-11-18T19:36:07.471Z,6.10
2022-11-18T19:38:34.882Z,6.10
2022-11-18T19:41:02.030Z,6.20
2022-11-18T19:43:28.836Z,6.20
2022-11-18T19:45:55.768Z,6.20
2022-11-18T19:48:22.750Z,6.20
2022-11-18T19:50:49.516Z,6.20
2022-11-18T19:53:31.881Z,6.20
2022-11-18T19:55:59.364Z,6.20
2022-11-18T19:58:26.510Z,6.20
2022-11-18T20:00:53.613Z,6.20
2022-11-18T20:03:20.315Z,6.20
2022-11-18T20:05:53.095Z,6.20
2022-11-18T20:08:24.223Z,6.10
2022-11-18T20:10:51.709Z,6.10
2022-11-18T20:13:18.390Z,6.10
2022-11-18T20:15:45.166Z,6.10
2022-11-18T20:18:11.834Z,6.00
2022-11-18T20:20:38.635Z,6.00
2022-11-18T20:23:05.286Z,5.90
2022-11-18T20:25:31.964Z,5.80
2022-11-18T20:27:58.627Z,5.70
2022-11-18T20:30:25.241Z,5.70
2022-11-18T20:32:51.823Z,5.60
2022-11-18T20:35:18.493Z,5.60
2022-11-18T20:37:45.854Z,5.50
2022-11-18T20:40:12.599Z,5.40
2022-11-18T20:42:58.056Z,5.40
2022-11-18T20:45:24.686Z,5.40
2022-11-18T20:47:51.562Z,5.30
2022-11-18T20:50:18.179Z,5.30
2022-11-18T20:52:44.801Z,5.30
2022-11-18T20:55:11.477Z,5.30
2022-11-18T20:57:38.100Z,5.20
2022-11-18T21:00:05.882Z,5.20
2022-11-18T21:02:32.498Z,5.20
2022-11-18T21:04:59.096Z,5.20
2022-11-18T21:07:26.054Z,5.30
2022-11-18T21:09:52.722Z,5.30
2022-11-18T21:12:19.403Z,5.30
2022-11-18T21:14:46.065Z,5.20
2022-11-18T21:17:12.785Z,5.20
2022-11-18T21:19:39.403Z,5.20
2022-11-18T21:22:06.031Z,5.10
2022-11-18T21:24:33.958Z,5.10
2022-11-18T21:27:01.682Z,5.10
2022-11-18T21:29:29.445Z,5.00
2022-11-18T21:31:56.254Z,5.10
2022-11-18T21:34:22.982Z,5.20
2022-11-18T21:36:54.349Z,5.30
2022-11-18T21:39:22.640Z,5.30
2022-11-18T21:41:54.818Z,5.40
2022-11-18T21:44:22.166Z,5.40
2022-11-18T21:46:48.838Z,5.50
2022-11-18T21:49:15.469Z,5.50
2022-11-18T21:51:43.597Z,5.60
2022-11-18T21:54:11.700Z,5.60
2022-11-18T21:56:38.312Z,5.60
2022-11-18T21:59:06.041Z,5.60
2022-11-18T22:01:33.539Z,5.70
2022-11-18T22:04:01.651Z,5.70
2022-11-18T22:06:30.060Z,5.70
2022-11-18T22:08:57.011Z,5.80
2022-11-18T22:11:25.520Z,5.80
2022-11-18T22:13:52.920Z,5.90
2022-11-18T22:16:22.050Z,5.90
2022-11-18T22:18:54.731Z,6.00
2022-11-18T22:21:23.080Z,6.00
2022-11-18T22:23:49.870Z,6.10
2022-11-18T22:26:18.197Z,6.10
2022-11-18T22:28:45.146Z,6.10
2022-11-18T22:31:21.612Z,6.10
2022-11-18T22:33:48.482Z,6.10
2022-11-18T22:36:16.255Z,6.10
2022-11-18T22:38:43.484Z,6.10
2022-11-18T22:41:34.005Z,6.10
2022-11-18T22:44:07.607Z,6.10
2022-11-18T22:46:35.437Z,6.10
2022-11-18T22:49:02.088Z,6.00
2022-11-18T22:51:28.836Z,6.00
2022-11-18T22:54:15.985Z,6.00
2022-11-18T22:56:42.347Z,6.00
2022-11-18T22:59:10.417Z,6.00
2022-11-18T23:01:37.066Z,5.90
2022-11-18T23:04:03.744Z,5.90
2022-11-18T23:06:30.341Z,5.90
2022-11-18T23:08:56.986Z,6.00
2022-11-18T23:11:42.335Z,6.00
2022-11-18T23:14:09.858Z,6.00
2022-11-18T23:16:38.916Z,6.00
2022-11-18T23:19:06.845Z,6.00
2022-11-18T23:21:33.498Z,6.00
2022-11-18T23:24:00.522Z,6.00
2022-11-18T23:26:28.730Z,6.10
2022-11-18T23:28:55.440Z,6.10
2022-11-18T23:31:23.118Z,6.10
2022-11-18T23:33:49.727Z,6.10
2022-11-18T23:36:17.641Z,6.10
2022-11-18T23:38:44.621Z,6.20
2022-11-18T23:41:12.274Z,6.20
2022-11-18T23:43:39.608Z,6.20
2022-11-18T23:46:06.817Z,6.20
2022-11-18T23:48:40.733Z,6.20
2022-11-18T23:51:08.227Z,6.20
2022-11-18T23:53:35.298Z,6.20
2022-11-18T23:56:02.907Z,6.20
2022-11-18T23:58:29.536Z,6.20
